sensor_id;sensor_type;location;lat;lon;timestamp;temperature;humidity
20139;DHT22;10230;51.502;10.800;2023-04-24T17:44:55;10.50;99.90
20139;DHT22;10230;51.502;10.800;2023-04-24T17:47:20;10.50;99.90
20139;DHT22;10230;51.502;10.800;2023-04-24T17:49:47;10.50;99.90
20139;DHT22;10230;51.502;10.800;2023-04-24T17:52:12;10.50;99.90
20139;DHT22;10230;51.502;10.800;2023-04-24T17:54:39;10.50;99.90
20139;DHT22;10230;51.502;10.800;2023-04-24T17:57:05;10.40;99.90
20139;DHT22;10230;51.502;10.800;2023-04-24T17:59:30;10.40;99.90
20139;DHT22;10230;51.502;10.800;2023-04-24T18:01:56;10.40;99.90
20139;DHT22;10230;51.502;10.800;2023-04-24T18:04:22;10.40;99.90
20139;DHT22;10230;51.502;10.800;2023-04-24T18:06:48;10.40;99.90
20139;DHT22;10230;51.502;10.800;2023-04-24T18:09:13;10.40;99.90
20139;DHT22;10230;51.502;10.800;2023-04-24T18:11:42;10.40;99.90
20139;DHT22;10230;51.502;10.800;2023-04-24T18:14:08;10.40;99.90
20139;DHT22;10230;51.502;10.800;2023-04-24T18:16:33;10.40;99.90
20139;DHT22;10230;51.502;10.800;2023-04-24T18:18:59;10.40;99.90
20139;DHT22;10230;51.502;10.800;2023-04-24T18:21:25;10.40;99.90
20139;DHT22;10230;51.502;10.800;2023-04-24T18:23:51;10.40;99.90
20139;DHT22;10230;51.502;10.800;2023-04-24T18:26:16;10.40;99.90
20139;DHT22;10230;51.502;10.800;2023-04-24T18:28:43;10.40;99.90
20139;DHT22;10230;51.502;10.800;2023-04-24T18:31:09;10.30;99.90
20139;DHT22;10230;51.502;10.800;2023-04-24T18:33:34;10.30;99.90
20139;DHT22;10230;51.502;10.800;2023-04-24T18:36:00;10.40;99.90
20139;DHT22;10230;51.502;10.800;2023-04-24T18:38:28;10.40;99.90
20139;DHT22;10230;51.502;10.800;2023-04-24T18:40:53;10.40;99.90
20139;DHT22;10230;51.502;10.800;2023-04-24T18:43:19;10.40;99.90
20139;DHT22;10230;51.502;10.800;2023-04-24T18:45:45;10.40;99.90
20139;DHT22;10230;51.502;10.800;2023-04-24T18:48:11;10.40;99.90
20139;DHT22;10230;51.502;10.800;2023-04-24T18:50:37;10.40;99.90
20139;DHT22;10230;51.502;10.800;2023-04-24T18:53:05;10.40;99.90
20139;DHT22;10230;51.502;10.800;2023-04-24T18:55:31;10.50;99.90
20139;DHT22;10230;51.502;10.800;2023-04-24T18:57:58;10.50;99.90
20139;DHT22;10230;51.502;10.800;2023-04-24T19:00:23;10.50;99.90
20139;DHT22;10230;51.502;10.800;2023-04-24T19:02:49;10.50;99.90
20139;DHT22;10230;51.502;10.800;2023-04-24T19:05:15;10.50;99.90
20139;DHT22;10230;51.502;10.800;2023-04-24T19:07:40;10.50;99.90
20139;DHT22;10230;51.502;10.800;2023-04-24T19:10:07;10.50;99.90
20139;DHT22;10230;51.502;10.800;2023-04-24T19:12:33;10.40;99.90
20139;DHT22;10230;51.502;10.800;2023-04-24T19:14:59;10.40;99.90
20139;DHT22;10230;51.502;10.800;2023-04-24T19:17:24;10.30;99.90
20139;DHT22;10230;51.502;10.800;2023-04-24T19:19:50;10.10;99.90
20139;DHT22;10230;51.502;10.800;2023-04-24T19:22:17;10.00;99.90
20139;DHT22;10230;51.502;10.800;2023-04-24T19:24:43;9.80;99.90
20139;DHT22;10230;51.502;10.800;2023-04-24T19:27:09;9.70;99.90
20139;DHT22;10230;51.502;10.800;2023-04-24T19:29:35;9.60;99.90
20139;DHT22;10230;51.502;10.800;2023-04-24T19:32:00;9.50;99.90
20139;DHT22;10230;51.502;10.800;2023-04-24T19:36:53;9.40;99.90
20139;DHT22;10230;51.502;10.800;2023-04-24T19:39:19;9.40;99.90
20139;DHT22;10230;51.502;10.800;2023-04-24T19:41:44;9.40;99.90
20139;DHT22;10230;51.502;10.800;2023-04-24T19:44:10;9.40;99.90
20139;DHT22;10230;51.502;10.800;2023-04-24T19:46:36;9.40;99.90
20139;DHT22;10230;51.502;10.800;2023-04-24T19:49:04;9.40;99.90
20139;DHT22;10230;51.502;10.800;2023-04-24T19:51:29;9.40;99.90
20139;DHT22;10230;51.502;10.800;2023-04-24T19:53:56;9.40;99.90
20139;DHT22;10230;51.502;10.800;2023-04-24T19:56:22;9.50;99.90
20139;DHT22;10230;51.502;10.800;2023-04-24T19:58:47;9.50;99.90
20139;DHT22;10230;51.502;10.800;2023-04-24T20:01:13;9.50;99.90
20139;DHT22;10230;51.502;10.800;2023-04-24T20:03:39;9.50;99.90
20139;DHT22;10230;51.502;10.800;2023-04-24T20:06:05;9.50;99.90
20139;DHT22;10230;51.502;10.800;2023-04-24T20:08:30;9.50;99.90
20139;DHT22;10230;51.502;10.800;2023-04-24T20:10:56;9.50;99.90
20139;DHT22;10230;51.502;10.800;2023-04-24T20:13:25;9.50;99.90
20139;DHT22;10230;51.502;10.800;2023-04-24T20:15:52;9.50;99.90
20139;DHT22;10230;51.502;10.800;2023-04-24T20:18:18;9.50;99.90
20139;DHT22;10230;51.502;10.800;2023-04-24T20:20:45;9.50;99.90
20139;DHT22;10230;51.502;10.800;2023-04-24T20:23:11;9.50;99.90
20139;DHT22;10230;51.502;10.800;2023-04-24T20:25:36;9.50;99.90
20139;DHT22;10230;51.502;10.800;2023-04-24T20:28:02;9.50;99.90
20139;DHT22;10230;51.502;10.800;2023-04-24T20:30:29;9.50;99.90
20139;DHT22;10230;51.502;10.800;2023-04-24T20:32:55;9.60;99.90
20139;DHT22;10230;51.502;10.800;2023-04-24T20:35:21;9.60;99.90
20139;DHT22;10230;51.502;10.800;2023-04-24T20:37:47;9.60;99.90
20139;DHT22;10230;51.502;10.800;2023-04-24T20:40:12;9.60;99.90
20139;DHT22;10230;51.502;10.800;2023-04-24T20:42:39;9.50;99.90
20139;DHT22;10230;51.502;10.800;2023-04-24T20:45:05;9.50;99.90
20139;DHT22;10230;51.502;10.800;2023-04-24T20:47:31;9.50;99.90
20139;DHT22;10230;51.502;10.800;2023-04-24T20:49:57;9.50;99.90
20139;DHT22;10230;51.502;10.800;2023-04-24T20:52:22;9.50;99.90
20139;DHT22;10230;51.502;10.800;2023-04-24T20:54:48;9.50;99.90
20139;DHT22;10230;51.502;10.800;2023-04-24T20:57:14;9.50;99.90
20139;DHT22;10230;51.502;10.800;2023-04-24T20:59:40;9.50;99.90
20139;DHT22;10230;51.502;10.800;2023-04-24T21:02:06;9.40;99.90
20139;DHT22;10230;51.502;10.800;2023-04-24T21:04:32;9.40;99.90
20139;DHT22;10230;51.502;10.800;2023-04-24T21:07:01;9.30;99.90
20139;DHT22;10230;51.502;10.800;2023-04-24T21:09:27;9.20;99.90
20139;DHT22;10230;51.502;10.800;2023-04-24T21:11:53;9.10;99.90
20139;DHT22;10230;51.502;10.800;2023-04-24T21:14:18;9.10;99.90
20139;DHT22;10230;51.502;10.800;2023-04-24T21:16:44;9.10;99.90
20139;DHT22;10230;51.502;10.800;2023-04-24T21:19:09;9.10;99.90
20139;DHT22;10230;51.502;10.800;2023-04-24T21:21:35;9.00;99.90
20139;DHT22;10230;51.502;10.800;2023-04-24T21:24:01;9.10;99.90
20139;DHT22;10230;51.502;10.800;2023-04-24T21:26:29;9.00;99.90
20139;DHT22;10230;51.502;10.800;2023-04-24T21:28:54;9.00;99.90
20139;DHT22;10230;51.502;10.800;2023-04-24T21:31:20;9.10;99.90
20139;DHT22;10230;51.502;10.800;2023-04-24T21:33:46;9.00;99.90
20139;DHT22;10230;51.502;10.800;2023-04-24T21:36:11;9.00;99.90
20139;DHT22;10230;51.502;10.800;2023-04-24T21:38:37;8.90;99.90
20139;DHT22;10230;51.502;10.800;2023-04-24T21:41:04;8.90;99.90
20139;DHT22;10230;51.502;10.800;2023-04-24T21:43:30;8.90;99.90
20139;DHT22;10230;51.502;10.800;2023-04-24T21:45:56;8.90;99.90
20139;DHT22;10230;51.502;10.800;2023-04-24T21:48:22;9.00;99.90
20139;DHT22;10230;51.502;10.800;2023-04-24T21:50:47;9.00;99.90
20139;DHT22;10230;51.502;10.800;2023-04-24T21:53:13;9.00;99.90
20139;DHT22;10230;51.502;10.800;2023-04-24T21:55:39;9.00;99.90
20139;DHT22;10230;51.502;10.800;2023-04-24T21:58:04;8.90;99.90
20139;DHT22;10230;51.502;10.800;2023-04-24T22:00:30;8.90;99.90
20139;DHT22;10230;51.502;10.800;2023-04-24T22:02:56;8.80;99.90
20139;DHT22;10230;51.502;10.800;2023-04-24T22:05:22;8.70;99.90
20139;DHT22;10230;51.502;10.800;2023-04-24T22:07:48;8.70;99.90
20139;DHT22;10230;51.502;10.800;2023-04-24T22:10:14;8.70;99.90
20139;DHT22;10230;51.502;10.800;2023-04-24T22:12:41;8.80;99.90
20139;DHT22;10230;51.502;10.800;2023-04-24T22:15:07;8.80;99.90
20139;DHT22;10230;51.502;10.800;2023-04-24T22:17:34;8.90;99.90
20139;DHT22;10230;51.502;10.800;2023-04-24T22:20:00;8.80;99.90
20139;DHT22;10230;51.502;10.800;2023-04-24T22:22:26;8.80;99.90
20139;DHT22;10230;51.502;10.800;2023-04-24T22:24:52;8.70;99.90
20139;DHT22;10230;51.502;10.800;2023-04-24T22:27:18;8.60;99.90
20139;DHT22;10230;51.502;10.800;2023-04-24T22:29:43;8.60;99.90
20139;DHT22;10230;51.502;10.800;2023-04-24T22:34:35;8.50;99.90
20139;DHT22;10230;51.502;10.800;2023-04-24T22:37:01;8.40;99.90
20139;DHT22;10230;51.502;10.800;2023-04-24T22:39:27;8.40;99.90
20139;DHT22;10230;51.502;10.800;2023-04-24T22:41:53;8.30;99.90
20139;DHT22;10230;51.502;10.800;2023-04-24T22:44:18;8.30;99.90
20139;DHT22;10230;51.502;10.800;2023-04-24T22:46:44;8.20;99.90
20139;DHT22;10230;51.502;10.800;2023-04-24T22:49:10;8.20;99.90
20139;DHT22;10230;51.502;10.800;2023-04-24T22:51:36;8.10;99.90
20139;DHT22;10230;51.502;10.800;2023-04-24T22:54:05;8.10;99.90
20139;DHT22;10230;51.502;10.800;2023-04-24T22:56:30;8.10;99.90
20139;DHT22;10230;51.502;10.800;2023-04-24T22:58:57;8.20;99.90
20139;DHT22;10230;51.502;10.800;2023-04-24T23:01:23;8.30;99.90
20139;DHT22;10230;51.502;10.800;2023-04-24T23:03:49;8.00;99.90
20139;DHT22;10230;51.502;10.800;2023-04-24T23:08:41;7.90;99.90
20139;DHT22;10230;51.502;10.800;2023-04-24T23:11:07;7.90;99.90
20139;DHT22;10230;51.502;10.800;2023-04-24T23:13:33;7.80;99.90
20139;DHT22;10230;51.502;10.800;2023-04-24T23:15:59;7.80;99.90
20139;DHT22;10230;51.502;10.800;2023-04-24T23:18:24;7.70;99.90
20139;DHT22;10230;51.502;10.800;2023-04-24T23:20:50;7.70;99.90
20139;DHT22;10230;51.502;10.800;2023-04-24T23:23:16;7.60;99.90
20139;DHT22;10230;51.502;10.800;2023-04-24T23:25:42;7.60;99.90
20139;DHT22;10230;51.502;10.800;2023-04-24T23:28:07;7.60;99.90
20139;DHT22;10230;51.502;10.800;2023-04-24T23:30:33;7.50;99.90
20139;DHT22;10230;51.502;10.800;2023-04-24T23:32:58;7.50;99.90
20139;DHT22;10230;51.502;10.800;2023-04-24T23:35:24;7.40;99.90
20139;DHT22;10230;51.502;10.800;2023-04-24T23:37:51;7.50;99.90
20139;DHT22;10230;51.502;10.800;2023-04-24T23:40:17;7.40;99.90
20139;DHT22;10230;51.502;10.800;2023-04-24T23:42:42;7.40;99.90
20139;DHT22;10230;51.502;10.800;2023-04-24T23:45:09;7.40;99.90
20139;DHT22;10230;51.502;10.800;2023-04-24T23:47:35;7.40;99.90
20139;DHT22;10230;51.502;10.800;2023-04-24T23:50:01;7.40;99.90
20139;DHT22;10230;51.502;10.800;2023-04-24T23:52:27;7.30;99.90
20139;DHT22;10230;51.502;10.800;2023-04-24T23:54:52;7.30;99.90
20139;DHT22;10230;51.502;10.800;2023-04-24T23:57:18;7.30;99.90
20139;DHT22;10230;51.502;10.800;2023-04-24T23:59:44;7.30;99.90
